sensor_id;sensor_type;location;lat;lon;timestamp;pressure;altitude;pressure_sealevel;temperature;humidity
32324;BME280;25666;44.350;9.222;2022-12-16T00:02:11;100181.19;;;12.42;100.00
32324;BME280;25666;44.350;9.222;2022-12-16T00:04:50;100183.59;;;12.44;100.00
32324;BME280;25666;44.350;9.222;2022-12-16T00:07:16;100164.44;;;12.42;100.00
32324;BME280;25666;44.350;9.222;2022-12-16T00:09:41;100157.28;;;12.45;100.00
32324;BME280;25666;44.350;9.222;2022-12-16T00:12:07;100160.09;;;12.45;100.00
32324;BME280;25666;44.350;9.222;2022-12-16T00:14:32;100153.66;;;12.41;100.00
32324;BME280;25666;44.350;9.222;2022-12-16T00:16:59;100149.63;;;12.38;100.00
32324;BME280;25666;44.350;9.222;2022-12-16T00:19:25;100163.22;;;12.40;100.00
32324;BME280;25666;44.350;9.222;2022-12-16T00:21:50;100163.22;;;12.40;100.00
32324;BME280;25666;44.350;9.222;2022-12-16T00:24:19;100164.81;;;12.41;100.00
32324;BME280;25666;44.350;9.222;2022-12-16T00:26:44;100153.22;;;12.39;100.00
32324;BME280;25666;44.350;9.222;2022-12-16T00:29:10;100146.88;;;12.42;100.00
32324;BME280;25666;44.350;9.222;2022-12-16T00:31:35;100150.09;;;12.44;100.00
32324;BME280;25666;44.350;9.222;2022-12-16T00:34:01;100151.59;;;12.34;100.00
32324;BME280;25666;44.350;9.222;2022-12-16T00:36:26;100152.00;;;12.36;100.00
32324;BME280;25666;44.350;9.222;2022-12-16T00:38:52;100163.16;;;12.36;100.00
32324;BME280;25666;44.350;9.222;2022-12-16T00:41:18;100162.25;;;12.28;100.00
32324;BME280;25666;44.350;9.222;2022-12-16T00:43:44;100159.44;;;12.28;100.00
32324;BME280;25666;44.350;9.222;2022-12-16T00:46:10;100156.72;;;12.32;100.00
32324;BME280;25666;44.350;9.222;2022-12-16T00:48:36;100160.25;;;12.29;100.00
32324;BME280;25666;44.350;9.222;2022-12-16T00:51:01;100156.34;;;12.33;100.00
32324;BME280;25666;44.350;9.222;2022-12-16T00:53:27;100152.28;;;12.27;100.00
32324;BME280;25666;44.350;9.222;2022-12-16T00:56:03;100155.44;;;12.26;100.00
32324;BME280;25666;44.350;9.222;2022-12-16T00:58:29;100157.00;;;12.23;100.00
32324;BME280;25666;44.350;9.222;2022-12-16T01:00:55;100159.66;;;12.16;100.00
32324;BME280;25666;44.350;9.222;2022-12-16T01:03:20;100159.53;;;12.09;100.00
32324;BME280;25666;44.350;9.222;2022-12-16T01:05:46;100172.28;;;12.07;100.00
32324;BME280;25666;44.350;9.222;2022-12-16T01:08:11;100172.81;;;12.16;100.00
32324;BME280;25666;44.350;9.222;2022-12-16T01:10:37;100165.56;;;12.11;100.00
32324;BME280;25666;44.350;9.222;2022-12-16T01:13:03;100176.06;;;12.18;100.00
32324;BME280;25666;44.350;9.222;2022-12-16T01:15:28;100176.41;;;12.16;100.00
32324;BME280;25666;44.350;9.222;2022-12-16T01:17:54;100182.00;;;12.16;100.00
32324;BME280;25666;44.350;9.222;2022-12-16T01:20:19;100181.94;;;12.13;100.00
32324;BME280;25666;44.350;9.222;2022-12-16T01:22:45;100179.53;;;12.11;100.00
32324;BME280;25666;44.350;9.222;2022-12-16T01:25:11;100176.00;;;12.14;100.00
32324;BME280;25666;44.350;9.222;2022-12-16T01:27:40;100184.28;;;12.11;100.00
32324;BME280;25666;44.350;9.222;2022-12-16T01:30:06;100187.91;;;12.11;100.00
32324;BME280;25666;44.350;9.222;2022-12-16T01:32:33;100187.56;;;12.16;100.00
32324;BME280;25666;44.350;9.222;2022-12-16T01:34:59;100185.22;;;12.18;100.00
32324;BME280;25666;44.350;9.222;2022-12-16T01:37:25;100191.44;;;12.08;100.00
32324;BME280;25666;44.350;9.222;2022-12-16T01:39:51;100193.28;;;12.01;100.00
32324;BME280;25666;44.350;9.222;2022-12-16T01:42:21;100190.44;;;11.97;100.00
32324;BME280;25666;44.350;9.222;2022-12-16T01:44:48;100193.78;;;12.06;100.00
32324;BME280;25666;44.350;9.222;2022-12-16T01:47:17;100196.56;;;12.06;100.00
32324;BME280;25666;44.350;9.222;2022-12-16T01:50:03;100202.53;;;12.05;100.00
32324;BME280;25666;44.350;9.222;2022-12-16T01:52:33;100202.19;;;12.10;100.00
32324;BME280;25666;44.350;9.222;2022-12-16T01:55:05;100200.66;;;12.12;100.00
32324;BME280;25666;44.350;9.222;2022-12-16T01:58:04;100197.75;;;12.05;100.00
32324;BME280;25666;44.350;9.222;2022-12-16T02:00:26;100195.41;;;12.07;100.00
32324;BME280;25666;44.350;9.222;2022-12-16T02:02:54;100192.28;;;12.12;100.00
32324;BME280;25666;44.350;9.222;2022-12-16T02:05:20;100185.91;;;12.12;100.00
32324;BME280;25666;44.350;9.222;2022-12-16T02:08:14;100186.28;;;12.10;100.00
32324;BME280;25666;44.350;9.222;2022-12-16T02:21:20;100184.25;;;12.07;100.00
32324;BME280;25666;44.350;9.222;2022-12-16T02:26:52;100195.19;;;11.97;100.00
32324;BME280;25666;44.350;9.222;2022-12-16T02:32:46;100191.63;;;11.96;100.00
32324;BME280;25666;44.350;9.222;2022-12-16T02:38:32;100188.16;;;12.03;100.00
32324;BME280;25666;44.350;9.222;2022-12-16T02:41:06;100188.19;;;12.06;100.00
32324;BME280;25666;44.350;9.222;2022-12-16T02:44:07;100202.59;;;12.08;100.00
32324;BME280;25666;44.350;9.222;2022-12-16T02:46:39;100193.78;;;12.06;100.00
32324;BME280;25666;44.350;9.222;2022-12-16T02:51:56;100199.31;;;12.03;100.00
32324;BME280;25666;44.350;9.222;2022-12-16T02:54:23;100192.25;;;12.09;100.00
32324;BME280;25666;44.350;9.222;2022-12-16T03:03:28;100172.16;;;12.00;100.00
32324;BME280;25666;44.350;9.222;2022-12-16T03:05:57;100181.38;;;12.04;100.00
32324;BME280;25666;44.350;9.222;2022-12-16T03:08:29;100182.25;;;12.08;100.00
32324;BME280;25666;44.350;9.222;2022-12-16T03:11:03;100180.97;;;12.02;100.00
32324;BME280;25666;44.350;9.222;2022-12-16T03:13:37;100178.72;;;12.11;100.00
32324;BME280;25666;44.350;9.222;2022-12-16T03:16:08;100175.13;;;12.10;100.00
32324;BME280;25666;44.350;9.222;2022-12-16T03:18:39;100168.94;;;11.98;100.00
32324;BME280;25666;44.350;9.222;2022-12-16T03:21:10;100167.88;;;12.06;100.00
32324;BME280;25666;44.350;9.222;2022-12-16T03:24:02;100171.09;;;12.08;100.00
32324;BME280;25666;44.350;9.222;2022-12-16T03:26:48;100166.38;;;12.12;100.00
32324;BME280;25666;44.350;9.222;2022-12-16T03:32:14;100155.53;;;12.07;100.00
32324;BME280;25666;44.350;9.222;2022-12-16T03:35:14;100161.22;;;12.14;100.00
32324;BME280;25666;44.350;9.222;2022-12-16T03:37:47;100160.84;;;12.15;100.00
32324;BME280;25666;44.350;9.222;2022-12-16T03:40:21;100154.91;;;12.17;100.00
32324;BME280;25666;44.350;9.222;2022-12-16T03:42:51;100157.16;;;12.08;100.00
32324;BME280;25666;44.350;9.222;2022-12-16T03:45:26;100152.00;;;12.10;100.00
32324;BME280;25666;44.350;9.222;2022-12-16T03:48:00;100151.19;;;12.09;100.00
32324;BME280;25666;44.350;9.222;2022-12-16T03:50:32;100154.84;;;12.13;100.00
32324;BME280;25666;44.350;9.222;2022-12-16T03:52:58;100157.31;;;12.18;100.00
32324;BME280;25666;44.350;9.222;2022-12-16T03:55:25;100159.66;;;12.16;100.00
32324;BME280;25666;44.350;9.222;2022-12-16T03:57:53;100157.31;;;12.18;100.00
32324;BME280;25666;44.350;9.222;2022-12-16T04:00:20;100150.94;;;12.18;100.00
32324;BME280;25666;44.350;9.222;2022-12-16T04:02:46;100168.03;;;12.16;100.00
32324;BME280;25666;44.350;9.222;2022-12-16T04:05:12;100160.84;;;12.15;100.00
32324;BME280;25666;44.350;9.222;2022-12-16T04:07:38;100163.97;;;12.10;100.00
32324;BME280;25666;44.350;9.222;2022-12-16T04:10:05;100161.97;;;12.11;100.00
32324;BME280;25666;44.350;9.222;2022-12-16T04:12:31;100158.78;;;12.12;100.00
32324;BME280;25666;44.350;9.222;2022-12-16T04:15:18;100154.47;;;12.15;100.00
32324;BME280;25666;44.350;9.222;2022-12-16T04:18:07;100148.91;;;12.15;100.00
32324;BME280;25666;44.350;9.222;2022-12-16T04:20:58;100157.28;;;12.15;100.00
32324;BME280;25666;44.350;9.222;2022-12-16T04:23:49;100166.75;;;12.10;100.00
32324;BME280;25666;44.350;9.222;2022-12-16T04:26:35;100160.28;;;12.06;100.00
32324;BME280;25666;44.350;9.222;2022-12-16T04:29:20;100167.97;;;12.13;100.00
32324;BME280;25666;44.350;9.222;2022-12-16T04:31:47;100162.72;;;12.08;100.00
32324;BME280;25666;44.350;9.222;2022-12-16T04:34:14;100159.53;;;12.06;100.00
32324;BME280;25666;44.350;9.222;2022-12-16T04:36:57;100162.72;;;12.08;100.00
32324;BME280;25666;44.350;9.222;2022-12-16T04:39:43;100165.84;;;12.03;100.00
32324;BME280;25666;44.350;9.222;2022-12-16T04:42:29;100165.53;;;12.08;100.00
32324;BME280;25666;44.350;9.222;2022-12-16T04:45:15;100174.22;;;12.03;100.00
32324;BME280;25666;44.350;9.222;2022-12-16T04:48:12;100161.09;;;12.07;100.00
32324;BME280;25666;44.350;9.222;2022-12-16T04:50:57;100168.31;;;12.08;100.00
32324;BME280;25666;44.350;9.222;2022-12-16T04:53:43;100169.53;;;12.10;100.00
32324;BME280;25666;44.350;9.222;2022-12-16T04:56:33;100167.16;;;12.12;100.00
32324;BME280;25666;44.350;9.222;2022-12-16T04:59:18;100177.91;;;12.10;100.00
32324;BME280;25666;44.350;9.222;2022-12-16T05:02:05;100178.72;;;12.11;100.00
32324;BME280;25666;44.350;9.222;2022-12-16T05:04:50;100180.34;;;12.12;100.00
32324;BME280;25666;44.350;9.222;2022-12-16T05:07:36;100179.06;;;12.09;100.00
32324;BME280;25666;44.350;9.222;2022-12-16T05:10:21;100178.19;;;12.02;100.00
32324;BME280;25666;44.350;9.222;2022-12-16T05:13:06;100179.34;;;12.01;100.00
32324;BME280;25666;44.350;9.222;2022-12-16T05:15:50;100176.69;;;12.08;100.00
32324;BME280;25666;44.350;9.222;2022-12-16T05:18:34;100181.94;;;12.13;100.00
32324;BME280;25666;44.350;9.222;2022-12-16T05:21:20;100179.41;;;12.04;100.00
32324;BME280;25666;44.350;9.222;2022-12-16T05:24:04;100185.41;;;12.06;100.00
32324;BME280;25666;44.350;9.222;2022-12-16T05:26:49;100188.25;;;12.10;100.00
32324;BME280;25666;44.350;9.222;2022-12-16T05:29:37;100193.97;;;12.17;100.00
32324;BME280;25666;44.350;9.222;2022-12-16T05:32:22;100197.06;;;12.12;100.00
32324;BME280;25666;44.350;9.222;2022-12-16T05:35:07;100191.09;;;12.13;100.00
32324;BME280;25666;44.350;9.222;2022-12-16T05:37:53;100184.72;;;12.13;100.00
32324;BME280;25666;44.350;9.222;2022-12-16T05:40:40;100195.50;;;12.14;100.00
32324;BME280;25666;44.350;9.222;2022-12-16T05:43:24;100188.31;;;12.13;100.00
32324;BME280;25666;44.350;9.222;2022-12-16T05:46:08;100196.00;;;12.20;100.00
32324;BME280;25666;44.350;9.222;2022-12-16T05:48:52;100192.84;;;12.21;100.00
32324;BME280;25666;44.350;9.222;2022-12-16T05:51:38;100195.19;;;12.19;100.00
32324;BME280;25666;44.350;9.222;2022-12-16T05:54:22;100203.88;;;12.14;100.00
32324;BME280;25666;44.350;9.222;2022-12-16T05:57:06;100192.72;;;12.14;100.00
32324;BME280;25666;44.350;9.222;2022-12-16T05:59:54;100202.25;;;12.13;100.00
32324;BME280;25666;44.350;9.222;2022-12-16T06:02:38;100214.56;;;12.09;100.00
32324;BME280;25666;44.350;9.222;2022-12-16T06:05:22;100215.34;;;12.09;100.00
32324;BME280;25666;44.350;9.222;2022-12-16T06:08:06;100215.41;;;12.13;100.00
32324;BME280;25666;44.350;9.222;2022-12-16T06:10:50;100211.88;;;12.16;100.00
32324;BME280;25666;44.350;9.222;2022-12-16T06:13:34;100213.13;;;12.18;100.00
32324;BME280;25666;44.350;9.222;2022-12-16T06:16:18;100224.28;;;12.18;100.00
32324;BME280;25666;44.350;9.222;2022-12-16T06:19:02;100221.91;;;12.20;100.00
32324;BME280;25666;44.350;9.222;2022-12-16T06:21:46;100225.06;;;12.19;100.00
32324;BME280;25666;44.350;9.222;2022-12-16T06:24:30;100231.09;;;12.21;100.00
32324;BME280;25666;44.350;9.222;2022-12-16T06:27:14;100227.50;;;12.20;100.00
32324;BME280;25666;44.350;9.222;2022-12-16T06:29:58;100235.00;;;12.16;100.00
32324;BME280;25666;44.350;9.222;2022-12-16T06:32:42;100233.88;;;12.21;100.00
32324;BME280;25666;44.350;9.222;2022-12-16T06:35:27;100235.00;;;12.16;100.00
32324;BME280;25666;44.350;9.222;2022-12-16T06:41:09;100242.00;;;12.07;100.00
32324;BME280;25666;44.350;9.222;2022-12-16T06:43:53;100247.72;;;12.14;100.00
32324;BME280;25666;44.350;9.222;2022-12-16T06:49:13;100242.00;;;12.07;100.00
32324;BME280;25666;44.350;9.222;2022-12-16T06:52:00;100243.31;;;12.13;100.00
32324;BME280;25666;44.350;9.222;2022-12-16T06:57:26;100249.28;;;12.11;100.00
32324;BME280;25666;44.350;9.222;2022-12-16T07:00:24;100254.16;;;12.18;100.00
32324;BME280;25666;44.350;9.222;2022-12-16T07:03:08;100246.59;;;12.18;100.00
32324;BME280;25666;44.350;9.222;2022-12-16T07:11:20;100257.44;;;12.23;100.00
32324;BME280;25666;44.350;9.222;2022-12-16T07:14:04;100261.41;;;12.22;100.00
32324;BME280;25666;44.350;9.222;2022-12-16T07:16:49;100275.81;;;12.24;100.00
32324;BME280;25666;44.350;9.222;2022-12-16T07:19:33;100282.16;;;12.25;100.00
32324;BME280;25666;44.350;9.222;2022-12-16T07:22:17;100282.16;;;12.25;100.00
32324;BME280;25666;44.350;9.222;2022-12-16T07:25:02;100285.03;;;12.28;100.00
32324;BME280;25666;44.350;9.222;2022-12-16T07:27:46;100285.03;;;12.28;100.00
32324;BME280;25666;44.350;9.222;2022-12-16T07:30:31;100288.25;;;12.30;100.00
32324;BME280;25666;44.350;9.222;2022-12-16T07:33:15;100288.69;;;12.32;100.00
32324;BME280;25666;44.350;9.222;2022-12-16T07:35:59;100293.09;;;12.33;100.00
32324;BME280;25666;44.350;9.222;2022-12-16T07:38:43;100301.81;;;12.32;100.00
32324;BME280;25666;44.350;9.222;2022-12-16T07:41:27;100309.47;;;12.35;100.00
32324;BME280;25666;44.350;9.222;2022-12-16T07:44:21;100310.25;;;12.35;100.00
32324;BME280;25666;44.350;9.222;2022-12-16T07:47:06;100316.16;;;12.30;100.00
32324;BME280;25666;44.350;9.222;2022-12-16T07:49:50;100321.69;;;12.27;100.00
32324;BME280;25666;44.350;9.222;2022-12-16T07:52:34;100322.53;;;12.31;100.00
32324;BME280;25666;44.350;9.222;2022-12-16T07:55:18;100334.97;;;12.33;100.00
32324;BME280;25666;44.350;9.222;2022-12-16T07:58:02;100334.56;;;12.35;100.00
32324;BME280;25666;44.350;9.222;2022-12-16T08:00:47;100336.94;;;12.33;100.00
32324;BME280;25666;44.350;9.222;2022-12-16T08:03:31;100341.28;;;12.30;100.00
32324;BME280;25666;44.350;9.222;2022-12-16T12:23:03;100466.41;;;13.38;100.00
32324;BME280;25666;44.350;9.222;2022-12-16T12:31:47;100461.78;;;13.50;100.00
32324;BME280;25666;44.350;9.222;2022-12-16T12:49:03;100440.00;;;13.62;100.00
32324;BME280;25666;44.350;9.222;2022-12-16T12:54:43;100451.97;;;13.63;100.00
32324;BME280;25666;44.350;9.222;2022-12-16T13:06:05;100467.06;;;13.55;100.00
32324;BME280;25666;44.350;9.222;2022-12-16T13:11:37;100475.84;;;13.57;100.00
32324;BME280;25666;44.350;9.222;2022-12-16T14:41:36;100529.97;;;13.19;100.00
32324;BME280;25666;44.350;9.222;2022-12-16T14:44:23;100525.56;;;13.18;100.00
32324;BME280;25666;44.350;9.222;2022-12-16T14:50:18;100535.44;;;13.12;100.00
32324;BME280;25666;44.350;9.222;2022-12-16T14:53:19;100541.03;;;13.12;100.00
32324;BME280;25666;44.350;9.222;2022-12-16T14:56:18;100537.78;;;13.10;100.00
32324;BME280;25666;44.350;9.222;2022-12-16T14:59:20;100551.75;;;13.10;100.00
32324;BME280;25666;44.350;9.222;2022-12-16T15:02:19;100551.81;;;13.13;100.00
32324;BME280;25666;44.350;9.222;2022-12-16T15:05:18;100550.88;;;13.06;100.00
32324;BME280;25666;44.350;9.222;2022-12-16T15:08:04;100562.94;;;13.10;100.00
32324;BME280;25666;44.350;9.222;2022-12-16T15:10:48;100565.22;;;13.04;100.00
32324;BME280;25666;44.350;9.222;2022-12-16T15:13:34;100570.44;;;13.06;100.00
32324;BME280;25666;44.350;9.222;2022-12-16T15:16:24;100567.19;;;13.04;100.00
32324;BME280;25666;44.350;9.222;2022-12-16T15:19:18;100568.75;;;13.01;100.00
32324;BME280;25666;44.350;9.222;2022-12-16T15:22:03;100571.13;;;12.99;100.00
32324;BME280;25666;44.350;9.222;2022-12-16T15:24:48;100578.28;;;13.00;100.00
32324;BME280;25666;44.350;9.222;2022-12-16T15:27:36;100581.91;;;13.01;100.00
32324;BME280;25666;44.350;9.222;2022-12-16T15:33:26;100592.06;;;12.89;100.00
32324;BME280;25666;44.350;9.222;2022-12-16T15:36:31;100590.03;;;12.86;100.00
32324;BME280;25666;44.350;9.222;2022-12-16T15:42:04;100592.88;;;12.90;100.00
32324;BME280;25666;44.350;9.222;2022-12-16T15:44:50;100600.06;;;12.91;100.00
32324;BME280;25666;44.350;9.222;2022-12-16T15:47:37;100601.63;;;12.88;100.00
32324;BME280;25666;44.350;9.222;2022-12-16T15:50:25;100599.16;;;12.83;100.00
32324;BME280;25666;44.350;9.222;2022-12-16T15:53:27;100604.34;;;12.85;100.00
32324;BME280;25666;44.350;9.222;2022-12-16T15:56:42;100603.59;;;12.88;100.00
32324;BME280;25666;44.350;9.222;2022-12-16T15:59:31;100604.00;;;12.86;100.00
32324;BME280;25666;44.350;9.222;2022-12-16T16:02:27;100602.38;;;12.85;100.00
32324;BME280;25666;44.350;9.222;2022-12-16T16:05:22;100610.44;;;12.90;100.00
32324;BME280;25666;44.350;9.222;2022-12-16T16:08:12;100617.56;;;12.88;100.00
32324;BME280;25666;44.350;9.222;2022-12-16T16:10:56;100620.38;;;12.88;100.00
32324;BME280;25666;44.350;9.222;2022-12-16T16:13:52;100633.53;;;12.87;100.00
32324;BME280;25666;44.350;9.222;2022-12-16T16:16:36;100634.72;;;12.86;100.00
32324;BME280;25666;44.350;9.222;2022-12-16T16:19:23;100636.31;;;12.87;100.00
32324;BME280;25666;44.350;9.222;2022-12-16T16:22:12;100637.00;;;12.81;100.00
32324;BME280;25666;44.350;9.222;2022-12-16T16:24:57;100640.56;;;12.81;100.00
32324;BME280;25666;44.350;9.222;2022-12-16T16:27:41;100647.78;;;12.82;100.00
32324;BME280;25666;44.350;9.222;2022-12-16T16:30:25;100643.38;;;12.81;100.00
32324;BME280;25666;44.350;9.222;2022-12-16T16:33:09;100654.19;;;12.83;100.00
32324;BME280;25666;44.350;9.222;2022-12-16T16:35:53;100647.72;;;12.79;100.00
32324;BME280;25666;44.350;9.222;2022-12-16T16:38:37;100650.88;;;12.77;100.00
32324;BME280;25666;44.350;9.222;2022-12-16T16:41:22;100650.88;;;12.77;100.00
32324;BME280;25666;44.350;9.222;2022-12-16T16:44:06;100651.72;;;12.78;100.00
32324;BME280;25666;44.350;9.222;2022-12-16T16:46:51;100650.06;;;12.77;100.00
32324;BME280;25666;44.350;9.222;2022-12-16T16:49:44;100651.63;;;12.74;100.00
32324;BME280;25666;44.350;9.222;2022-12-16T16:52:28;100656.16;;;12.63;100.00
32324;BME280;25666;44.350;9.222;2022-12-16T16:55:16;100652.28;;;12.68;100.00
32324;BME280;25666;44.350;9.222;2022-12-16T16:58:04;100655.50;;;12.70;100.00
32324;BME280;25666;44.350;9.222;2022-12-16T17:00:50;100652.28;;;12.68;100.00
32324;BME280;25666;44.350;9.222;2022-12-16T17:03:34;100661.31;;;12.61;100.00
32324;BME280;25666;44.350;9.222;2022-12-16T17:06:18;100667.25;;;12.60;100.00
32324;BME280;25666;44.350;9.222;2022-12-16T17:09:02;100663.81;;;12.66;100.00
32324;BME280;25666;44.350;9.222;2022-12-16T17:11:46;100666.16;;;12.64;100.00
32324;BME280;25666;44.350;9.222;2022-12-16T17:14:30;100672.47;;;12.61;100.00
32324;BME280;25666;44.350;9.222;2022-12-16T17:17:14;100668.44;;;12.59;100.00
32324;BME280;25666;44.350;9.222;2022-12-16T17:19:59;100677.69;;;12.63;100.00
32324;BME280;25666;44.350;9.222;2022-12-16T17:22:43;100671.75;;;12.64;100.00
32324;BME280;25666;44.350;9.222;2022-12-16T17:25:27;100677.69;;;12.63;100.00
32324;BME280;25666;44.350;9.222;2022-12-16T17:28:13;100678.50;;;12.63;100.00
32324;BME280;25666;44.350;9.222;2022-12-16T17:30:57;100677.78;;;12.66;100.00
32324;BME280;25666;44.350;9.222;2022-12-16T17:33:46;100677.41;;;12.68;100.00
32324;BME280;25666;44.350;9.222;2022-12-16T17:36:30;100673.00;;;12.67;100.00
32324;BME280;25666;44.350;9.222;2022-12-16T17:39:14;100678.22;;;12.68;100.00
32324;BME280;25666;44.350;9.222;2022-12-16T17:41:59;100684.59;;;12.69;100.00
32324;BME280;25666;44.350;9.222;2022-12-16T17:44:46;100679.31;;;12.64;100.00
32324;BME280;25666;44.350;9.222;2022-12-16T17:47:30;100687.59;;;12.60;100.00
32324;BME280;25666;44.350;9.222;2022-12-16T17:50:14;100691.22;;;12.61;100.00
32324;BME280;25666;44.350;9.222;2022-12-16T17:52:58;100687.09;;;12.55;100.00
32324;BME280;25666;44.350;9.222;2022-12-16T17:55:42;100683.13;;;12.56;100.00
32324;BME280;25666;44.350;9.222;2022-12-16T17:58:35;100694.31;;;12.56;100.00
32324;BME280;25666;44.350;9.222;2022-12-16T18:01:19;100694.31;;;12.56;100.00
32324;BME280;25666;44.350;9.222;2022-12-16T18:06:44;100696.63;;;12.54;100.00
32324;BME280;25666;44.350;9.222;2022-12-16T18:09:29;100700.63;;;12.53;100.00
32324;BME280;25666;44.350;9.222;2022-12-16T18:12:13;100706.13;;;12.49;100.00
32324;BME280;25666;44.350;9.222;2022-12-16T18:14:57;100710.50;;;12.50;100.00
32324;BME280;25666;44.350;9.222;2022-12-16T18:17:41;100711.78;;;12.53;100.00
32324;BME280;25666;44.350;9.222;2022-12-16T18:20:25;100718.81;;;12.47;100.00
32324;BME280;25666;44.350;9.222;2022-12-16T18:23:09;100720.00;;;12.46;100.00
32324;BME280;25666;44.350;9.222;2022-12-16T18:26:00;100711.69;;;12.49;100.00
32324;BME280;25666;44.350;9.222;2022-12-16T18:28:46;100713.31;;;12.50;100.00
32324;BME280;25666;44.350;9.222;2022-12-16T18:39:36;100712.13;;;12.51;100.00
32324;BME280;25666;44.350;9.222;2022-12-16T18:42:21;100714.94;;;12.51;100.00
32324;BME280;25666;44.350;9.222;2022-12-16T18:45:06;100710.50;;;12.50;100.00
32324;BME280;25666;44.350;9.222;2022-12-16T18:47:51;100722.88;;;12.49;100.00
32324;BME280;25666;44.350;9.222;2022-12-16T18:50:35;100719.69;;;12.51;100.00
32324;BME280;25666;44.350;9.222;2022-12-16T19:11:39;100734.06;;;12.33;100.00
32324;BME280;25666;44.350;9.222;2022-12-16T19:17:20;100731.41;;;12.41;100.00
32324;BME280;25666;44.350;9.222;2022-12-16T19:20:05;100736.13;;;12.37;100.00
32324;BME280;25666;44.350;9.222;2022-12-16T19:22:50;100738.63;;;12.42;100.00
32324;BME280;25666;44.350;9.222;2022-12-16T19:25:34;100739.88;;;12.44;100.00
32324;BME280;25666;44.350;9.222;2022-12-16T19:28:18;100742.59;;;12.41;100.00
32324;BME280;25666;44.350;9.222;2022-12-16T19:31:02;100743.78;;;12.40;100.00
32324;BME280;25666;44.350;9.222;2022-12-16T19:33:52;100736.94;;;12.37;100.00
32324;BME280;25666;44.350;9.222;2022-12-16T19:36:37;100752.88;;;12.37;100.00
32324;BME280;25666;44.350;9.222;2022-12-16T19:39:21;100744.84;;;12.35;100.00
32324;BME280;25666;44.350;9.222;2022-12-16T19:44:56;100755.56;;;12.33;100.00
32324;BME280;25666;44.350;9.222;2022-12-16T19:47:41;100757.13;;;12.30;100.00
32324;BME280;25666;44.350;9.222;2022-12-16T19:50:29;100755.56;;;12.33;100.00
32324;BME280;25666;44.350;9.222;2022-12-16T19:53:16;100759.09;;;12.30;100.00
32324;BME280;25666;44.350;9.222;2022-12-16T19:56:03;100759.00;;;12.26;100.00
32324;BME280;25666;44.350;9.222;2022-12-16T19:58:47;100767.28;;;12.23;100.00
32324;BME280;25666;44.350;9.222;2022-12-16T20:01:33;100772.13;;;12.26;100.00
32324;BME280;25666;44.350;9.222;2022-12-16T20:04:18;100766.56;;;12.26;100.00
32324;BME280;25666;44.350;9.222;2022-12-16T20:07:02;100769.34;;;12.26;100.00
32324;BME280;25666;44.350;9.222;2022-12-16T20:09:46;100765.31;;;12.23;100.00
32324;BME280;25666;44.350;9.222;2022-12-16T20:12:30;100766.38;;;12.19;100.00
32324;BME280;25666;44.350;9.222;2022-12-16T20:15:15;100772.34;;;12.17;100.00
32324;BME280;25666;44.350;9.222;2022-12-16T20:18:03;100783.22;;;12.22;100.00
32324;BME280;25666;44.350;9.222;2022-12-16T20:20:52;100780.69;;;12.17;100.00
32324;BME280;25666;44.350;9.222;2022-12-16T21:31:50;100849.72;;;12.05;100.00
32324;BME280;25666;44.350;9.222;2022-12-16T21:34:38;100855.09;;;11.98;100.00
32324;BME280;25666;44.350;9.222;2022-12-16T21:37:22;100860.78;;;12.01;100.00
32324;BME280;25666;44.350;9.222;2022-12-16T21:40:07;100857.66;;;12.03;100.00
32324;BME280;25666;44.350;9.222;2022-12-16T21:42:53;100865.91;;;11.99;100.00
32324;BME280;25666;44.350;9.222;2022-12-16T21:45:37;100863.38;;;11.94;100.00
32324;BME280;25666;44.350;9.222;2022-12-16T21:48:21;100866.03;;;12.03;100.00
32324;BME280;25666;44.350;9.222;2022-12-16T21:51:07;100866.47;;;12.05;100.00
32324;BME280;25666;44.350;9.222;2022-12-16T21:53:51;100869.44;;;11.96;100.00
32324;BME280;25666;44.350;9.222;2022-12-16T21:56:45;100867.53;;;12.00;100.00
32324;BME280;25666;44.350;9.222;2022-12-16T22:02:01;100880.22;;;11.98;100.00
32324;BME280;25666;44.350;9.222;2022-12-16T22:04:45;100881.03;;;11.98;100.00
32324;BME280;25666;44.350;9.222;2022-12-16T22:07:32;100880.94;;;11.95;100.00
32324;BME280;25666;44.350;9.222;2022-12-16T22:10:16;100878.75;;;11.88;100.00
32324;BME280;25666;44.350;9.222;2022-12-16T22:13:00;100880.59;;;11.96;100.00
32324;BME280;25666;44.350;9.222;2022-12-16T22:15:54;100887.41;;;11.99;100.00
32324;BME280;25666;44.350;9.222;2022-12-16T22:18:38;100884.97;;;11.97;100.00
32324;BME280;25666;44.350;9.222;2022-12-16T22:21:22;100892.91;;;11.95;100.00
32324;BME280;25666;44.350;9.222;2022-12-16T22:24:14;100896.34;;;12.04;100.00
32324;BME280;25666;44.350;9.222;2022-12-16T22:26:58;100895.31;;;11.97;100.00
32324;BME280;25666;44.350;9.222;2022-12-16T22:29:42;100898.69;;;12.02;100.00
32324;BME280;25666;44.350;9.222;2022-12-16T22:32:26;100902.72;;;12.05;100.00
32324;BME280;25666;44.350;9.222;2022-12-16T22:35:10;100906.78;;;12.07;100.00
32324;BME280;25666;44.350;9.222;2022-12-16T22:37:54;100912.09;;;12.12;100.00
32324;BME280;25666;44.350;9.222;2022-12-16T22:40:37;100911.31;;;12.12;100.00
32324;BME280;25666;44.350;9.222;2022-12-16T22:43:31;100910.94;;;12.13;100.00
32324;BME280;25666;44.350;9.222;2022-12-16T22:46:27;100914.16;;;12.15;100.00
32324;BME280;25666;44.350;9.222;2022-12-16T22:49:11;100909.69;;;12.11;100.00
32324;BME280;25666;44.350;9.222;2022-12-16T22:51:55;100907.31;;;12.13;100.00
32324;BME280;25666;44.350;9.222;2022-12-16T22:54:39;100903.66;;;12.09;100.00